»·PEaware :: AAL2063 KLAS-KPHX

AAL2063 :: KLAS-KPHX

FLIGHT INFORMATION

Flight Status: Arrived
Operator:
American Airlines
More flights by this operator :: More flights under this callsign
Pilot: Henderson P. (1210)
Aircraft: AIRBUS A320
(A320)
More flights by this aircraft type
Origin: KLAS McCarran Intl
United States
Destination: KPHX Phoenix Sky Harbor Intl
United States
More flights between these airports :: More routes between these airports
Route: +COWBY8 COWBY TENTS BRUSR1
File this flight plan on PilotEdge
Remarks:
Altitude:
(Current/Filed)
29,000ft
Speed:
(Current/Filed)
455kts
Departed: 06-Nov-18 04:50 PM
Arrived: 06-Nov-18 05:41 PM
Distance/Time
Traveled:
222nm/0:51
Distance/Time
To Go:
Arrived

Flight Plot

Page will automatically refresh every two minutes.

Flight plan parsing failed; only flown route is shown


Map Options




Map Legend


Flown Route
Filed Route
Departure Airport
Arrival Airport
Navaid (VOR, NDB)
Fix

Horizontal Profiles

Position Reports

Time Latitude Longitude Heading Altitude Ground
Speed
06-Nov-18 16:01 36.079944 -115.135801 45 2195ft 0kts
06-Nov-18 16:02 36.079944 -115.135801 45 2195ft 0kts
06-Nov-18 16:03 36.079944 -115.135801 45 2195ft 0kts
06-Nov-18 16:04 36.079944 -115.135801 45 2195ft 0kts
06-Nov-18 16:05 36.079944 -115.135801 45 2195ft 0kts
06-Nov-18 16:06 36.079944 -115.135801 45 2195ft 0kts
06-Nov-18 16:07 36.079944 -115.135801 45 2195ft 0kts
06-Nov-18 16:08 36.079944 -115.135801 45 2195ft 0kts
06-Nov-18 16:09 36.079944 -115.135801 45 2195ft 0kts
06-Nov-18 16:10 36.079944 -115.135801 45 2195ft 0kts
06-Nov-18 16:11 36.079944 -115.135801 45 2195ft 0kts
06-Nov-18 16:12 36.079944 -115.135801 45 2195ft 0kts
06-Nov-18 16:13 36.079944 -115.135801 45 2195ft 0kts
06-Nov-18 16:14 36.079944 -115.135801 45 2195ft 0kts
06-Nov-18 16:15 36.079944 -115.135801 45 2195ft 0kts
06-Nov-18 16:16 36.079944 -115.135801 45 2195ft 0kts
06-Nov-18 16:17 36.079944 -115.135801 45 2195ft 0kts
06-Nov-18 16:18 36.079944 -115.135801 45 2195ft 0kts
06-Nov-18 16:19 36.079944 -115.135801 45 2195ft 0kts
06-Nov-18 16:20 36.079944 -115.135801 45 2195ft 0kts
06-Nov-18 16:21 36.079944 -115.135801 45 2195ft 0kts
06-Nov-18 16:22 36.079944 -115.135801 45 2195ft 0kts
06-Nov-18 16:23 36.079944 -115.135801 45 2195ft 0kts
06-Nov-18 16:24 36.079944 -115.135801 45 2195ft 0kts
06-Nov-18 16:25 36.079944 -115.135801 45 2195ft 0kts
06-Nov-18 16:26 36.079944 -115.135801 45 2195ft 0kts
06-Nov-18 16:27 36.079944 -115.135801 45 2195ft 0kts
06-Nov-18 16:28 36.079944 -115.135801 45 2195ft 0kts
06-Nov-18 16:29 36.079944 -115.135801 45 2195ft 0kts
06-Nov-18 16:30 36.079944 -115.135801 45 2195ft 0kts
06-Nov-18 16:31 36.079944 -115.135801 45 2195ft 0kts
06-Nov-18 16:32 36.079944 -115.135801 45 2195ft 0kts
06-Nov-18 16:33 36.079944 -115.135801 45 2195ft 0kts
06-Nov-18 16:34 36.079944 -115.135801 45 2195ft 0kts
06-Nov-18 16:35 36.079944 -115.135801 45 2195ft 0kts
06-Nov-18 16:36 36.079944 -115.135801 45 2195ft 0kts
06-Nov-18 16:37 36.079944 -115.135801 45 2195ft 0kts
06-Nov-18 16:38 36.079944 -115.135801 45 2195ft 0kts
06-Nov-18 16:39 36.079944 -115.135801 45 2195ft 0kts
06-Nov-18 16:40 36.079944 -115.135801 45 2195ft 0kts
06-Nov-18 16:41 36.079863 -115.135901 46 2195ft 2kts
06-Nov-18 16:42 36.079533 -115.136555 95 2195ft 2kts
06-Nov-18 16:43 36.079763 -115.136947 134 2195ft 0kts
06-Nov-18 16:44 36.079763 -115.136947 134 2195ft 0kts
06-Nov-18 16:45 36.079762 -115.136946 134 2195ft 0kts
06-Nov-18 16:46 36.079430 -115.136535 134 2195ft 6kts
06-Nov-18 16:47 36.078271 -115.134289 90 2195ft 14kts
06-Nov-18 16:48 36.078282 -115.127572 89 2195ft 22kts
06-Nov-18 16:49 36.077826 -115.122007 129 2195ft 9kts
06-Nov-18 16:50 36.077407 -115.121430 136 2195ft 0kts
06-Nov-18 16:51 36.077407 -115.121429 136 2195ft 0kts
06-Nov-18 16:52 36.076417 -115.122342 270 2195ft 25kts
06-Nov-18 16:53 36.076073 -115.166996 269 3195ft 169kts
06-Nov-18 16:54 36.073720 -115.234444 251 4756ft 231kts
06-Nov-18 16:55 36.015248 -115.280762 200 6840ft 286kts
06-Nov-18 16:56 35.938499 -115.290494 161 7525ft 288kts
06-Nov-18 16:57 35.864839 -115.248343 125 10536ft 306kts
06-Nov-18 16:58 35.836873 -115.137862 104 11944ft 370kts
06-Nov-18 16:59 35.826814 -115.004720 81 13458ft 411kts
06-Nov-18 17:00 35.840935 -114.862300 82 15568ft 427kts
06-Nov-18 17:01 35.854001 -114.714177 81 17477ft 443kts
06-Nov-18 17:02 35.867580 -114.560537 82 19310ft 457kts
06-Nov-18 17:03 35.881330 -114.402837 82 21000ft 470kts
06-Nov-18 17:04 35.895260 -114.240590 82 22553ft 481kts
06-Nov-18 17:05 35.909265 -114.074601 82 23953ft 492kts
06-Nov-18 17:06 35.919419 -113.904938 94 25267ft 503kts
06-Nov-18 17:07 35.875891 -113.739588 110 26555ft 510kts
06-Nov-18 17:08 35.828451 -113.575941 110 28159ft 507kts
06-Nov-18 17:09 35.780221 -113.413063 110 29096ft 504kts
06-Nov-18 17:10 35.732346 -113.250689 110 29111ft 506kts
06-Nov-18 17:11 35.683968 -113.087927 110 29112ft 506kts
06-Nov-18 17:12 35.635320 -112.925477 111 29142ft 506kts
06-Nov-18 17:13 35.586441 -112.762765 111 29151ft 508kts
06-Nov-18 17:14 35.537260 -112.600313 111 29201ft 508kts
06-Nov-18 17:15 35.459686 -112.461374 151 29213ft 494kts
06-Nov-18 17:16 35.331079 -112.420254 176 29214ft 478kts
06-Nov-18 17:17 35.199729 -112.394907 176 29203ft 478kts
06-Nov-18 17:18 35.070709 -112.366722 174 27423ft 461kts
06-Nov-18 17:19 34.941402 -112.339048 174 25717ft 478kts
06-Nov-18 17:20 34.812094 -112.310726 174 24034ft 454kts
06-Nov-18 17:21 34.685893 -112.282892 174 22343ft 457kts
06-Nov-18 17:22 34.563834 -112.256189 174 20706ft 449kts
06-Nov-18 17:23 34.447554 -112.230419 174 19677ft 391kts
06-Nov-18 17:24 34.344434 -112.204063 173 17849ft 374kts
06-Nov-18 17:25 34.244884 -112.178154 173 16219ft 357kts
06-Nov-18 17:26 34.150010 -112.153593 173 15005ft 336kts
06-Nov-18 17:27 34.061330 -112.127567 166 13636ft 325kts
06-Nov-18 17:28 33.976703 -112.092672 165 12376ft 317kts
06-Nov-18 17:29 33.893843 -112.059090 164 11191ft 311kts
06-Nov-18 17:30 33.813404 -112.026411 163 9892ft 300kts
06-Nov-18 17:31 33.739175 -111.996394 162 8863ft 289kts
06-Nov-18 17:32 33.666980 -111.967197 162 8158ft 263kts
06-Nov-18 17:33 33.597903 -111.939289 162 7131ft 255kts
06-Nov-18 17:34 33.535592 -111.912082 144 6922ft 219kts
06-Nov-18 17:35 33.527431 -111.841059 92 6893ft 222kts
06-Nov-18 17:36 33.527826 -111.766979 91 5688ft 221kts
06-Nov-18 17:37 33.526159 -111.694351 116 4923ft 215kts
06-Nov-18 17:38 33.478076 -111.688131 235 4947ft 208kts
06-Nov-18 17:39 33.449581 -111.748461 240 4824ft 202kts
06-Nov-18 17:40 33.440698 -111.810825 268 4079ft 194kts
06-Nov-18 17:41 33.440711 -111.872408 268 3125ft 166kts
06-Nov-18 17:42 33.440750 -111.920914 268 2347ft 135kts
06-Nov-18 17:43 33.440891 -111.965722 269 1631ft 133kts
06-Nov-18 17:44 33.440847 -112.004790 269 1149ft 31kts
06-Nov-18 17:45 33.438979 -112.007066 93 1149ft 11kts
06-Nov-18 17:46 33.438992 -112.001456 90 1149ft 18kts
06-Nov-18 17:47 33.436779 -111.999980 89 1149ft 2kts
06-Nov-18 17:48 33.436779 -111.999849 90 1149ft 0kts
06-Nov-18 17:49 33.436779 -111.999849 90 1149ft 0kts
06-Nov-18 17:50 33.436779 -111.999849 90 1149ft 0kts
06-Nov-18 17:51 33.436779 -111.999849 90 1149ft 0kts

Navigation Log

Ident Type
Flight plan parsing failed, navigation log unavailable